Main page
METAR-TAF:

METAR-TAF

Airports :

Valladolid, Spain

Valladolid Airport

latitude: 41-43N, longitude: 004-51W, elevation: 849 m

Current weather observation

The report was made 8 hours and 24 minutes ago, at 19:30 UTC
Wind 7 kt from the North
Temperature 15°C
Humidity 36%
Pressure 1024 hPa
Visibility 10 km or more
no clouds below 1500 m and no cumulonimbus

METAR: LEVD 191930Z 01007KT CAVOK 15/00 Q1024

Time: 05:54 (03:54 UTC)

Forecast

The report was made 4 hours and 54 minutes ago, at 23:00 UTC
Forecast valid from 20 at 00 UTC to 20 at 24 UTC
Wind 5 kt from variable directions
Visibility 10 km or more
no clouds below 1500 m and no cumulonimbus
Probability 40% :
Temporary
from 20 at 00 UTC to 20 at 06 UTC
Wind 7 kt from the North/Northeast

TAF: LEVD 192300Z 2000/2024 VRB05KT CAVOK TX27/2015Z TN06/2006Z PROB40 TEMPO 2000/2006 03007KT

Weather observations and forecasts of more than 4000 airports (METAR and TAF reports).

The available stations are represented by yellow and red dots on the map.

Hover mouse over dot to see the name of the station.

Then click to see weather observations and forecasts.

To change the map : click on the green buttons with a black cross to zoom in, on the green button with a dash to zoom out, or on the green arrows for adjacent maps.


METAR-TAF: